createdAt,value
2018-11-22T13:02:36.191Z,17.20
2018-11-22T13:04:58.931Z,16.90
2018-11-22T13:07:21.575Z,16.80
2018-11-22T13:09:44.272Z,16.80
2018-11-22T13:12:07.081Z,16.90
2018-11-22T13:14:29.753Z,16.50
2018-11-22T14:00:21.558Z,11.00
2018-11-22T14:02:44.941Z,9.80
2018-11-22T14:05:12.485Z,9.10
2018-11-22T14:07:36.043Z,8.60
2018-11-22T14:09:59.847Z,8.30
2018-11-22T14:12:22.989Z,7.90
2018-11-22T14:14:45.949Z,7.70
2018-11-22T15:00:26.782Z,5.20
2018-11-22T15:02:49.477Z,5.00
2018-11-22T15:05:12.815Z,4.90
2018-11-22T15:07:35.575Z,4.80
2018-11-22T15:09:58.229Z,4.60
2018-11-22T15:12:20.944Z,4.50
2018-11-22T15:14:43.636Z,4.40
2018-11-22T17:05:03.036Z,1.80
2018-11-22T17:07:25.844Z,1.70
2018-11-22T17:09:48.609Z,1.60
2018-11-22T17:12:11.288Z,1.60
2018-11-22T17:14:33.997Z,1.60
2018-11-22T18:00:18.812Z,1.30
2018-11-22T18:02:41.573Z,1.40
2018-11-22T18:05:05.037Z,1.40
2018-11-22T18:07:27.701Z,1.40
2018-11-22T18:09:50.433Z,1.40
2018-11-22T18:12:13.101Z,1.40
2018-11-22T18:14:35.916Z,1.40
2018-11-22T19:00:19.365Z,1.50
2018-11-22T19:02:43.872Z,1.50
2018-11-22T19:05:07.576Z,1.50
2018-11-22T19:07:31.817Z,1.60
2018-11-22T19:09:59.579Z,1.50
2018-11-22T19:12:22.594Z,1.50
2018-11-22T19:14:45.372Z,1.50
2018-11-22T20:00:20.389Z,1.40
2018-11-22T20:02:43.752Z,1.40
2018-11-22T20:05:07.546Z,1.50
2018-11-22T20:07:30.264Z,1.50
2018-11-22T20:09:52.951Z,1.50
2018-11-22T20:12:15.668Z,1.50
2018-11-22T20:14:38.349Z,1.50
2018-11-22T21:00:18.708Z,1.30
2018-11-22T21:02:41.640Z,1.30
2018-11-22T21:05:05.556Z,1.30
2018-11-22T21:07:28.266Z,1.20
2018-11-22T21:09:51.001Z,1.20
2018-11-22T21:12:13.749Z,1.30
2018-11-22T21:14:36.529Z,1.20
